Time;durP1;ratioP1;P1;durP2;ratioP2;P2;SDS_P1;SDS_P2;PMS_P1;PMS_P2;Temp;Humidity;BMP_temperature;BMP_pressure;BME280_temperature;BME280_humidity;BME280_pressure;Samples;Min_cycle;Max_cycle;Signal;HPM_P1;HPM_P2
2021/03/12 00:00:16;;;;;;;5.20;2.58;;;;;;;-11.22;29.20;100522.38;5051077;28;20089;-61
2021/03/12 00:02:42;;;;;;;8.23;2.42;;;;;;;-11.45;29.40;100489.19;5049685;28;20070;-59
2021/03/12 00:05:10;;;;;;;5.30;2.35;;;;;;;-11.30;29.21;100534.28;5051394;28;20029;-59
2021/03/12 00:07:35;;;;;;;5.38;2.30;;;;;;;-11.33;29.33;100527.31;5032475;28;20049;-58
2021/03/12 00:10:01;;;;;;;5.35;2.50;;;;;;;-11.48;29.71;100503.75;5050697;28;20051;-60
2021/03/12 00:12:28;;;;;;;5.78;2.13;;;;;;;-11.37;29.46;100529.81;5050519;28;20485;-51
2021/03/12 00:14:53;;;;;;;5.55;2.10;;;;;;;-11.49;29.43;100499.41;5050967;28;20044;-59
2021/03/12 00:17:19;;;;;;;4.75;2.03;;;;;;;-11.44;29.48;100511.59;5050185;28;20032;-61
2021/03/12 00:19:44;;;;;;;5.53;2.33;;;;;;;-11.50;29.53;100514.06;5050215;28;20052;-59
2021/03/12 00:22:11;;;;;;;6.35;2.13;;;;;;;-11.47;29.42;100500.31;5050566;28;20032;-58
2021/03/12 00:24:37;;;;;;;6.38;2.75;;;;;;;-11.60;29.27;100468.19;5050777;28;20032;-57
2021/03/12 00:27:02;;;;;;;6.18;2.33;;;;;;;-11.48;29.83;100512.38;5050833;28;20531;-58
2021/03/12 00:29:28;;;;;;;5.97;2.55;;;;;;;-11.51;29.59;100504.56;5050481;28;20045;-56
2021/03/12 00:31:53;;;;;;;5.15;2.03;;;;;;;-11.49;29.49;100497.72;5050570;28;20037;-58
2021/03/12 00:34:19;;;;;;;6.20;2.47;;;;;;;-11.55;29.84;100503.63;5050850;28;20086;-58
2021/03/12 00:36:44;;;;;;;5.63;2.75;;;;;;;-11.59;29.91;100496.66;5050475;28;20037;-59
2021/03/12 00:39:10;;;;;;;4.75;2.35;;;;;;;-11.62;30.00;100486.25;5050002;28;20045;-60
2021/03/12 00:41:35;;;;;;;7.47;2.72;;;;;;;-11.62;29.63;100496.59;5056550;28;20051;-58
2021/03/12 00:44:03;;;;;;;5.93;2.22;;;;;;;-11.72;29.72;100467.13;5032093;28;20037;-56
2021/03/12 00:46:28;;;;;;;3.83;2.30;;;;;;;-12.10;30.01;100402.66;5050018;28;20485;-61
2021/03/12 00:48:53;;;;;;;5.38;2.22;;;;;;;-12.32;30.12;100373.78;5049928;28;20037;-60
2021/03/12 00:51:19;;;;;;;5.13;2.55;;;;;;;-11.71;30.20;100476.59;5050428;28;20301;-58
2021/03/12 00:53:44;;;;;;;6.47;2.42;;;;;;;-12.08;30.15;100403.53;5048636;28;20481;-60
2021/03/12 00:56:10;;;;;;;4.28;2.10;;;;;;;-11.79;30.13;100449.75;5049806;28;20028;-57
2021/03/12 00:58:36;;;;;;;9.77;2.90;;;;;;;-11.69;30.20;100472.34;5050259;28;20094;-55
2021/03/12 01:01:01;;;;;;;7.53;2.47;;;;;;;-11.87;30.08;100446.13;5049525;28;20569;-58
2021/03/12 01:03:27;;;;;;;5.70;2.90;;;;;;;-11.82;30.44;100466.06;5050255;28;20452;-58
2021/03/12 01:05:52;;;;;;;12.27;3.38;;;;;;;-11.87;30.39;100454.75;5050158;28;20029;-58
2021/03/12 01:08:17;;;;;;;6.60;2.78;;;;;;;-12.02;30.34;100442.44;5050112;28;20056;-59
2021/03/12 01:10:43;;;;;;;8.57;2.67;;;;;;;-12.46;30.83;100367.47;5031643;28;20045;-58
2021/03/12 01:13:09;;;;;;;5.10;2.63;;;;;;;-11.92;30.88;100460.66;5049616;28;20124;-57
2021/03/12 01:15:35;;;;;;;6.72;2.55;;;;;;;-11.97;30.93;100445.06;5049293;28;20048;-60
2021/03/12 01:18:00;;;;;;;7.68;2.83;;;;;;;-12.58;31.07;100343.16;5050036;28;20148;-61
2021/03/12 01:20:30;;;;;;;7.18;2.85;;;;;;;-12.01;31.28;100456.19;5049900;28;20033;-58
2021/03/12 01:22:57;;;;;;;5.20;2.80;;;;;;;-12.01;31.09;100458.78;5050736;28;20041;-61
2021/03/12 01:25:26;;;;;;;6.93;2.90;;;;;;;-12.06;31.49;100435.44;5055455;28;20036;-59
2021/03/12 01:27:52;;;;;;;5.95;2.78;;;;;;;-12.17;31.61;100408.53;5069982;28;20273;-61
2021/03/12 01:30:33;;;;;;;7.90;3.40;;;;;;;-12.05;31.85;100446.66;5061446;28;20033;-60
2021/03/12 01:32:59;;;;;;;8.15;3.00;;;;;;;-12.03;31.72;100448.44;5049061;28;20037;-59
2021/03/12 01:35:24;;;;;;;7.80;3.53;;;;;;;-12.09;32.32;100425.03;5049406;28;20078;-57
2021/03/12 01:37:51;;;;;;;6.32;2.55;;;;;;;-12.03;32.11;100424.31;5050069;28;20061;-60
2021/03/12 01:40:18;;;;;;;8.30;3.15;;;;;;;-12.20;32.23;100413.63;5049740;28;20072;-61
2021/03/12 01:42:44;;;;;;;7.85;3.50;;;;;;;-12.08;32.42;100429.38;5048605;28;20071;-57
2021/03/12 01:45:20;;;;;;;7.13;2.63;;;;;;;-12.05;32.53;100433.72;5049015;28;20624;-60
2021/03/12 01:47:46;;;;;;;9.73;3.75;;;;;;;-12.02;32.51;100419.19;5050026;28;20537;-62
2021/03/12 01:50:12;;;;;;;7.38;3.25;;;;;;;-12.51;32.66;100340.72;5049925;28;20056;-62
2021/03/12 01:52:37;;;;;;;8.15;3.03;;;;;;;-12.03;32.97;100411.41;5049258;28;20061;-56
2021/03/12 01:55:06;;;;;;;9.00;3.35;;;;;;;-12.04;32.96;100415.72;5047724;28;20131;-54
2021/03/12 01:57:32;;;;;;;7.35;3.28;;;;;;;-12.51;32.51;100341.56;5049618;28;20033;-61
2021/03/12 01:59:58;;;;;;;6.32;2.92;;;;;;;-12.16;32.76;100407.69;5049559;28;20124;-59
2021/03/12 02:02:23;;;;;;;7.25;3.28;;;;;;;-12.12;33.04;100407.78;5049190;28;20056;-63
2021/03/12 02:04:49;;;;;;;6.95;3.13;;;;;;;-12.53;33.31;100332.94;5049081;28;20028;-59
2021/03/12 02:07:14;;;;;;;8.63;3.00;;;;;;;-12.07;33.27;100400.13;5049426;28;20091;-58
2021/03/12 02:09:40;;;;;;;8.45;3.58;;;;;;;-12.16;33.33;100380.19;5049642;28;20501;-60
2021/03/12 02:12:22;;;;;;;8.00;3.58;;;;;;;-12.15;33.98;100400.00;5049459;28;20434;-57
2021/03/12 02:15:33;;;;;;;8.38;3.28;;;;;;;-12.15;33.77;100381.91;5048506;28;20040;-59
2021/03/12 02:18:20;;;;;;;8.88;3.47;;;;;;;-12.07;34.09;100387.22;5016728;28;20143;-59
2021/03/12 02:20:56;;;;;;;6.88;2.63;;;;;;;-12.04;33.44;100392.47;5049459;28;20112;-64
2021/03/12 02:23:46;;;;;;;5.43;2.72;;;;;;;-12.67;34.01;100293.06;5052227;28;20455;-54
2021/03/12 02:26:28;;;;;;;7.25;3.08;;;;;;;-12.05;33.69;100395.00;5052965;28;20497;-60
2021/03/12 02:28:54;;;;;;;6.88;2.75;;;;;;;-12.42;33.62;100335.75;5053457;28;20486;-61
2021/03/12 02:31:22;;;;;;;6.25;3.13;;;;;;;-12.08;34.01;100405.28;5052884;28;20033;-62
2021/03/12 02:33:49;;;;;;;5.32;2.70;;;;;;;-12.01;33.57;100402.84;5052916;28;20064;-58
2021/03/12 02:36:16;;;;;;;9.40;2.92;;;;;;;-12.33;33.67;100351.41;5052364;28;20028;-58
2021/03/12 02:38:42;;;;;;;6.78;3.22;;;;;;;-12.04;33.95;100400.22;5052970;28;20091;-60
2021/03/12 02:41:08;;;;;;;9.23;3.55;;;;;;;-11.94;33.86;100397.78;5052569;28;20029;-60
2021/03/12 02:43:36;;;;;;;9.60;3.80;;;;;;;-11.92;33.85;100409.91;5053229;28;20128;-59
2021/03/12 02:46:03;;;;;;;8.20;3.60;;;;;;;-12.41;33.81;100322.88;5052176;28;20684;-60
2021/03/12 02:48:29;;;;;;;10.38;3.00;;;;;;;-12.06;33.52;100377.78;5051883;28;20048;-59
2021/03/12 02:51:07;;;;;;;6.55;2.67;;;;;;;-11.92;34.01;100390.94;5052716;28;20072;-61
2021/03/12 02:53:34;;;;;;;8.13;3.10;;;;;;;-12.03;34.08;100373.56;5052138;28;20127;-60
2021/03/12 02:56:15;;;;;;;7.55;3.05;;;;;;;-11.97;34.19;100381.38;5051884;28;20080;-60
2021/03/12 02:58:44;;;;;;;8.52;3.53;;;;;;;-12.24;34.03;100344.72;5052216;28;20040;-61
2021/03/12 03:01:10;;;;;;;5.28;2.70;;;;;;;-12.02;34.49;100382.16;5051961;28;20040;-57
2021/03/12 03:03:37;;;;;;;8.10;3.05;;;;;;;-12.00;34.65;100383.91;5053172;28;20044;-58
2021/03/12 03:06:07;;;;;;;7.88;3.30;;;;;;;-12.00;34.95;100378.75;5052984;28;20090;-60
2021/03/12 03:08:35;;;;;;;9.88;3.53;;;;;;;-12.02;34.85;100375.28;5051811;28;20578;-54
2021/03/12 03:11:06;;;;;;;8.15;3.42;;;;;;;-12.08;35.22;100367.41;5051391;28;20048;-57
2021/03/12 03:13:34;;;;;;;8.90;3.08;;;;;;;-12.05;35.05;100372.66;5051834;28;20047;-59
2021/03/12 03:16:01;;;;;;;10.95;3.25;;;;;;;-12.04;35.18;100374.41;5033785;28;20083;-62
2021/03/12 03:18:30;;;;;;;12.98;3.67;;;;;;;-12.14;35.15;100360.44;5051361;28;20028;-59
2021/03/12 03:20:57;;;;;;;10.10;3.40;;;;;;;-12.07;35.36;100363.97;5051923;28;20121;-60
2021/03/12 03:23:23;;;;;;;8.55;3.47;;;;;;;-12.08;35.70;100367.41;5052521;28;20039;-59
2021/03/12 03:25:48;;;;;;;9.70;3.75;;;;;;;-12.30;35.73;100327.38;5052013;28;20123;-60
2021/03/12 03:28:14;;;;;;;10.43;3.92;;;;;;;-12.31;35.58;100336.81;5033080;28;20128;-59
2021/03/12 03:30:39;;;;;;;8.35;3.00;;;;;;;-12.96;35.74;100223.69;5051008;28;20041;-59
2021/03/12 03:33:05;;;;;;;7.75;3.58;;;;;;;-12.26;35.70;100340.41;5050437;28;20534;-60
2021/03/12 03:35:31;;;;;;;7.82;3.45;;;;;;;-12.13;35.95;100372.50;5051759;28;20033;-55
2021/03/12 03:37:57;;;;;;;10.57;3.70;;;;;;;-12.13;36.23;100371.59;5051494;28;20523;-59
2021/03/12 03:40:22;;;;;;;9.57;3.80;;;;;;;-12.15;36.22;100352.63;5050972;28;20064;-61
2021/03/12 03:42:51;;;;;;;6.60;2.97;;;;;;;-12.21;36.38;100334.44;5051897;28;20051;-57
2021/03/12 03:45:18;;;;;;;12.48;3.15;;;;;;;-12.09;36.20;100346.75;5051477;28;20037;-59
2021/03/12 03:47:45;;;;;;;9.85;3.47;;;;;;;-12.12;36.56;100332.03;5051347;28;20120;-58
2021/03/12 03:50:12;;;;;;;11.82;4.25;;;;;;;-12.03;36.60;100344.28;5050490;28;20394;-58
2021/03/12 03:52:39;;;;;;;9.68;4.07;;;;;;;-11.99;36.53;100331.44;5051579;28;20496;-60
2021/03/12 03:55:07;;;;;;;10.20;3.63;;;;;;;-12.05;36.74;100327.88;5050511;28;20040;-62
2021/03/12 03:57:33;;;;;;;8.98;3.53;;;;;;;-11.96;36.80;100333.19;5051409;28;20059;-60
2021/03/12 04:00:01;;;;;;;9.00;3.45;;;;;;;-11.91;36.65;100329.00;5050549;28;20040;-61
2021/03/12 04:02:27;;;;;;;8.88;3.35;;;;;;;-11.84;37.29;100327.38;5051175;28;20037;-61
2021/03/12 04:04:53;;;;;;;9.27;3.83;;;;;;;-11.78;36.73;100336.97;5050825;28;20039;-57
2021/03/12 04:07:20;;;;;;;7.57;3.42;;;;;;;-11.76;36.86;100312.03;5051020;28;20057;-56
2021/03/12 04:09:50;;;;;;;11.00;4.05;;;;;;;-11.65;37.36;100314.81;5050542;28;20037;-60
2021/03/12 04:12:16;;;;;;;11.07;3.72;;;;;;;-11.62;37.06;100317.44;5050626;28;20041;-56
2021/03/12 04:14:44;;;;;;;7.93;3.72;;;;;;;-11.56;36.94;100305.50;5050815;28;20428;-56
2021/03/12 04:17:11;;;;;;;8.43;3.38;;;;;;;-11.64;36.86;100289.00;5050641;28;20044;-59
2021/03/12 04:19:38;;;;;;;10.68;3.63;;;;;;;-11.36;37.12;100307.56;5050427;28;20049;-59
2021/03/12 04:22:04;;;;;;;10.25;3.92;;;;;;;-11.63;36.69;100233.03;5044856;28;20091;-56
2021/03/12 04:24:31;;;;;;;12.23;3.70;;;;;;;-11.16;36.84;100278.56;5032468;28;20044;-57
2021/03/12 04:26:57;;;;;;;11.15;4.00;;;;;;;-11.00;36.42;100290.00;5050526;28;20422;-59
2021/03/12 04:29:23;;;;;;;9.73;3.85;;;;;;;-10.76;36.38;100305.00;5050442;28;20071;-60
2021/03/12 04:31:49;;;;;;;10.43;4.25;;;;;;;-10.66;35.73;100290.47;5049998;28;20056;-56
2021/03/12 04:34:14;;;;;;;12.43;4.38;;;;;;;-10.27;35.93;100306.47;5050463;28;20037;-57
2021/03/12 04:36:40;;;;;;;14.20;4.50;;;;;;;-9.18;34.80;100282.47;5050360;28;20036;-57
2021/03/12 04:39:06;;;;;;;8.63;4.50;;;;;;;-6.95;32.24;100304.84;5050457;28;20047;-58
2021/03/12 04:41:34;;;;;;;11.25;4.50;;;;;;;-4.99;29.27;100257.69;5050147;28;20198;-58
2021/03/12 04:44:00;;;;;;;9.15;4.35;;;;;;;-3.23;26.93;100273.75;5050485;28;20033;-58
2021/03/12 04:46:26;;;;;;;11.32;4.45;;;;;;;-2.42;25.58;100256.56;5049061;28;20041;-60
2021/03/12 04:48:52;;;;;;;10.80;4.93;;;;;;;-3.03;26.39;100262.91;5050365;28;20043;-61
2021/03/12 04:51:18;;;;;;;12.32;5.47;;;;;;;-4.05;27.15;100236.59;5050547;28;20053;-59
2021/03/12 04:53:44;;;;;;;17.02;5.57;;;;;;;-4.81;28.12;100256.66;5048523;28;20437;-57
2021/03/12 04:56:10;;;;;;;9.40;4.95;;;;;;;-4.68;28.39;100254.78;5050392;28;20124;-58
2021/03/12 04:58:38;;;;;;;11.93;5.10;;;;;;;-2.94;26.46;100249.66;5032454;28;20068;-59
2021/03/12 05:01:08;;;;;;;17.13;6.38;;;;;;;-0.96;24.79;100233.06;5050476;28;20102;-61
2021/03/12 05:03:34;;;;;;;11.73;5.28;;;;;;;0.73;22.88;100226.38;5049196;28;20640;-58
2021/03/12 05:06:00;;;;;;;12.77;5.70;;;;;;;2.36;21.77;100247.72;5049750;28;20234;-59
2021/03/12 05:08:27;;;;;;;10.95;5.38;;;;;;;3.73;20.39;100247.28;5050210;28;20056;-62
2021/03/12 05:11:00;;;;;;;11.90;5.40;;;;;;;4.58;18.56;100230.03;5048278;28;20522;-62
2021/03/12 05:13:25;;;;;;;13.88;5.53;;;;;;;5.37;18.15;100240.28;5049219;28;20047;-61
2021/03/12 05:15:51;;;;;;;11.05;5.30;;;;;;;6.17;17.50;100241.31;5049188;28;20045;-62
2021/03/12 05:18:17;;;;;;;11.20;5.82;;;;;;;6.92;16.95;100239.75;5050056;28;20028;-61
2021/03/12 05:20:43;;;;;;;10.55;6.05;;;;;;;7.46;16.10;100222.34;5050346;28;20061;-62
2021/03/12 05:23:08;;;;;;;14.50;6.05;;;;;;;8.09;15.86;100216.72;5047116;28;20120;-62
2021/03/12 05:25:34;;;;;;;10.00;5.40;;;;;;;8.73;15.26;100162.78;5048070;28;20515;-64
2021/03/12 05:27:59;;;;;;;11.18;6.13;;;;;;;9.77;14.54;100231.34;5048227;28;20029;-63
2021/03/12 05:30:25;;;;;;;10.05;6.03;;;;;;;10.29;14.16;100238.38;5049528;28;20483;-63
2021/03/12 05:32:51;;;;;;;12.80;6.55;;;;;;;10.54;13.45;100228.59;5049475;28;20033;-62
2021/03/12 05:35:16;;;;;;;10.30;6.25;;;;;;;10.33;13.36;100156.91;5048745;28;20041;-61
2021/03/12 05:37:42;;;;;;;10.88;6.30;;;;;;;10.93;13.26;100221.22;5050002;28;20029;-62
2021/03/12 05:40:08;;;;;;;11.48;7.25;;;;;;;11.27;13.15;100236.53;5049700;28;20048;-63
2021/03/12 05:42:36;;;;;;;12.70;6.38;;;;;;;11.60;12.71;100225.00;5048418;28;20045;-55
2021/03/12 05:45:02;;;;;;;11.30;6.97;;;;;;;11.49;12.38;100216.94;5048996;28;20039;-54
2021/03/12 05:47:29;;;;;;;11.80;7.20;;;;;;;11.73;11.92;100205.25;5048730;28;20063;-56
2021/03/12 05:49:56;;;;;;;12.73;7.60;;;;;;;12.29;11.86;100222.28;5049269;28;20468;-58
2021/03/12 05:52:22;;;;;;;15.95;7.95;;;;;;;12.80;11.52;100209.22;5049305;28;20142;-58
2021/03/12 05:54:48;;;;;;;13.27;7.30;;;;;;;13.25;11.33;100219.72;5047991;28;20124;-53
2021/03/12 05:57:14;;;;;;;13.50;7.72;;;;;;;13.85;10.78;100204.75;5051329;28;20064;-56
2021/03/12 05:59:39;;;;;;;11.50;6.82;;;;;;;14.02;10.61;100201.41;5053095;28;20072;-58
2021/03/12 06:02:05;;;;;;;13.35;8.10;;;;;;;14.31;10.25;100215.97;5053567;28;20137;-58
2021/03/12 06:04:30;;;;;;;13.98;7.93;;;;;;;14.91;10.04;100206.94;5051567;28;20043;-56
2021/03/12 06:06:56;;;;;;;16.83;7.95;;;;;;;15.63;9.47;100198.44;5048940;28;20049;-59
2021/03/12 06:09:22;;;;;;;11.82;8.10;;;;;;;15.92;9.33;100162.38;5031887;28;20135;-55
2021/03/12 06:11:55;;;;;;;14.70;9.20;;;;;;;16.20;8.77;100206.44;5050977;28;20079;-60
2021/03/12 06:14:56;;;;;;;13.45;8.60;;;;;;;16.14;8.28;100206.19;5044155;28;20488;-61
2021/03/12 06:17:35;;;;;;;12.85;8.10;;;;;;;16.09;9.26;100211.19;5052147;28;20021;-57
2021/03/12 06:20:07;;;;;;;13.07;8.82;;;;;;;15.29;9.00;100198.94;5033157;28;20053;-56
2021/03/12 06:22:33;;;;;;;15.60;8.70;;;;;;;14.53;9.59;100197.84;5043588;28;20032;-53
2021/03/12 06:25:12;;;;;;;15.10;8.95;;;;;;;14.04;10.17;100195.91;5052719;28;20047;-58
2021/03/12 06:27:38;;;;;;;14.38;8.35;;;;;;;13.75;10.12;100196.66;5052665;28;20029;-57
2021/03/12 06:30:04;;;;;;;14.05;8.52;;;;;;;13.00;10.36;100162.66;5052965;28;20041;-55
2021/03/12 06:32:36;;;;;;;15.60;9.40;;;;;;;12.14;10.54;100194.88;5051703;28;20029;-58
2021/03/12 06:35:02;;;;;;;13.55;8.75;;;;;;;11.36;11.21;100184.88;5052903;28;20033;-59
2021/03/12 06:37:30;;;;;;;15.88;8.48;;;;;;;11.51;11.37;100208.78;5053007;28;20388;-57
2021/03/12 06:39:56;;;;;;;20.65;9.63;;;;;;;12.03;11.44;100211.84;5049861;28;20037;-54
2021/03/12 06:42:21;;;;;;;19.23;9.45;;;;;;;12.59;10.51;100196.59;5052008;28;20127;-57
2021/03/12 06:44:47;;;;;;;15.40;9.45;;;;;;;12.32;10.80;100184.47;5052757;28;20119;-58
2021/03/12 06:47:12;;;;;;;18.98;9.60;;;;;;;11.42;11.43;100186.25;5051999;28;20037;-57
2021/03/12 06:49:55;;;;;;;15.38;8.45;;;;;;;11.80;11.60;100168.91;5052387;28;20029;-54
2021/03/12 06:52:33;;;;;;;15.57;9.32;;;;;;;12.59;11.24;100175.13;5052879;28;20033;-63
2021/03/12 06:54:59;;;;;;;16.45;9.23;;;;;;;12.48;11.24;100173.31;5051425;28;20547;-52
2021/03/12 06:57:25;;;;;;;14.80;8.75;;;;;;;12.24;11.36;100154.72;5052107;28;20242;-57
2021/03/12 06:59:58;;;;;;;14.32;9.35;;;;;;;12.37;11.12;100171.53;5052003;28;20551;-60
2021/03/12 07:02:35;;;;;;;16.50;9.05;;;;;;;12.79;11.21;100168.06;5034815;28;20037;-59
2021/03/12 07:05:00;;;;;;;16.75;10.05;;;;;;;12.52;11.01;100163.16;5046685;28;20064;-60
2021/03/12 07:07:41;;;;;;;14.02;8.77;;;;;;;12.62;11.37;100175.69;5047708;28;20404;-58
2021/03/12 07:10:09;;;;;;;17.33;9.60;;;;;;;12.81;11.05;100146.44;5047564;28;20045;-58
2021/03/12 07:13:04;;;;;;;12.50;9.07;;;;;;;13.92;11.03;100173.63;5049090;28;20472;-56
2021/03/12 07:15:29;;;;;;;16.85;9.52;;;;;;;14.26;10.15;100156.28;5029418;28;20041;-59
2021/03/12 07:17:55;;;;;;;15.13;9.18;;;;;;;14.74;10.30;100158.16;5043343;28;20040;-64
2021/03/12 07:20:21;;;;;;;14.52;9.02;;;;;;;15.54;10.01;100094.91;5047997;28;20037;-63
2021/03/12 07:22:48;;;;;;;15.55;9.30;;;;;;;15.84;9.79;100156.84;5039607;28;20032;-59
2021/03/12 07:25:19;;;;;;;17.15;10.05;;;;;;;15.58;9.72;100142.19;5047255;28;20032;-57
2021/03/12 07:27:47;;;;;;;16.98;9.15;;;;;;;15.58;9.62;100158.38;5047181;28;20030;-54
2021/03/12 07:30:15;;;;;;;14.43;9.45;;;;;;;15.75;9.51;100164.84;5042062;28;20519;-57
2021/03/12 07:32:44;;;;;;;20.45;10.45;;;;;;;15.33;9.84;100151.81;5030504;28;20163;-59
2021/03/12 07:35:12;;;;;;;15.23;9.70;;;;;;;15.25;9.86;100157.94;5050997;28;20040;-56
2021/03/12 07:37:39;;;;;;;17.08;9.85;;;;;;;15.26;10.07;100134.50;5034736;28;20050;-53
2021/03/12 07:40:06;;;;;;;14.15;9.27;;;;;;;14.99;9.97;100161.25;5050807;28;20120;-58
2021/03/12 07:42:33;;;;;;;16.73;9.50;;;;;;;14.09;10.42;100152.41;5049117;28;20041;-53
2021/03/12 07:44:59;;;;;;;14.77;10.30;;;;;;;13.51;10.69;100144.03;5049859;28;20033;-58
2021/03/12 07:47:29;;;;;;;15.85;10.45;;;;;;;13.30;10.73;100166.41;5051310;28;20040;-52
2021/03/12 07:49:55;;;;;;;17.13;10.02;;;;;;;13.10;11.31;100160.03;5051333;28;20036;-54
2021/03/12 07:52:48;;;;;;;16.63;10.07;;;;;;;13.29;11.36;100145.03;5050300;28;20148;-56
2021/03/12 07:55:13;;;;;;;16.30;10.07;;;;;;;12.73;11.30;100128.28;5050965;28;20408;-59
2021/03/12 07:57:41;;;;;;;15.20;10.13;;;;;;;12.45;11.73;100139.50;5051677;28;20048;-55
2021/03/12 08:00:08;;;;;;;16.50;10.15;;;;;;;11.92;11.80;100140.22;5051582;28;20040;-57
2021/03/12 08:02:56;;;;;;;18.42;10.32;;;;;;;11.12;12.58;100134.91;5032956;28;20036;-59
2021/03/12 08:05:38;;;;;;;15.00;9.77;;;;;;;9.93;13.61;100122.41;5050888;28;20534;-55
2021/03/12 08:08:24;;;;;;;19.02;10.48;;;;;;;8.68;14.28;100136.41;5051115;28;20520;-54
2021/03/12 08:11:25;;;;;;;19.33;10.75;;;;;;;7.54;15.67;100133.97;5051158;28;20136;-52
2021/03/12 08:14:09;;;;;;;19.70;10.63;;;;;;;6.46;16.32;100132.41;5023518;28;20063;-52
2021/03/12 08:16:57;;;;;;;19.85;10.65;;;;;;;5.22;17.32;100110.06;5049338;28;20040;-63
2021/03/12 08:19:36;;;;;;;24.75;11.15;;;;;;;4.24;18.37;100124.78;5030361;28;20137;-53
2021/03/12 08:22:28;;;;;;;20.55;10.38;;;;;;;3.43;19.04;100102.16;5045684;28;20025;-53
2021/03/12 08:24:55;;;;;;;17.48;10.65;;;;;;;2.95;19.69;100128.09;5051051;28;20044;-58
2021/03/12 08:27:56;;;;;;;18.27;9.32;;;;;;;2.87;19.99;100104.63;5051019;28;20036;-56
2021/03/12 08:30:21;;;;;;;17.75;9.43;;;;;;;2.41;20.58;100118.94;4963252;28;20066;-56
2021/03/12 08:32:47;;;;;;;22.42;10.70;;;;;;;1.84;21.21;100045.53;5020546;28;20091;-56
2021/03/12 08:35:34;;;;;;;18.75;8.80;;;;;;;2.14;21.26;100105.91;5049903;28;20416;-57
2021/03/12 08:38:23;;;;;;;20.08;9.73;;;;;;;2.11;20.97;100113.97;5036668;28;20063;-51
2021/03/12 08:40:57;;;;;;;20.10;8.95;;;;;;;1.84;21.21;100040.25;5050123;28;20167;-56
2021/03/12 08:43:25;;;;;;;16.83;8.70;;;;;;;1.93;20.86;100085.66;5050724;28;20036;-54
2021/03/12 08:45:52;;;;;;;17.05;9.35;;;;;;;1.83;21.08;100093.97;5050639;28;20041;-54
2021/03/12 08:48:24;;;;;;;20.75;10.15;;;;;;;1.86;21.48;100085.06;5050726;28;20056;-53
2021/03/12 08:51:06;;;;;;;18.83;9.30;;;;;;;1.36;21.54;99989.38;5050781;28;20040;-51
2021/03/12 08:53:40;;;;;;;15.68;8.52;;;;;;;2.16;21.33;100087.38;5030524;28;20037;-51
2021/03/12 08:56:08;;;;;;;22.85;9.50;;;;;;;1.72;21.38;100040.75;5047299;28;20028;-57
2021/03/12 08:58:35;;;;;;;19.35;9.10;;;;;;;1.81;21.89;100064.13;5044792;28;20048;-56
2021/03/12 09:01:14;;;;;;;15.20;9.10;;;;;;;2.09;22.05;100092.03;5050260;28;20068;-54
2021/03/12 09:03:46;;;;;;;21.88;8.73;;;;;;;2.04;21.60;100082.59;5048590;28;20083;-57
2021/03/12 09:06:16;;;;;;;16.95;8.27;;;;;;;1.95;22.14;100068.84;5032686;28;20045;-52
2021/03/12 09:08:43;;;;;;;15.57;8.57;;;;;;;1.94;21.92;100074.22;5049668;28;20079;-53
2021/03/12 09:11:14;;;;;;;13.98;7.70;;;;;;;2.07;21.80;100061.34;5049893;28;20072;-55
2021/03/12 09:13:42;;;;;;;19.65;8.82;;;;;;;2.35;21.66;100055.75;5044471;28;20120;-57
2021/03/12 09:16:08;;;;;;;15.55;8.43;;;;;;;2.36;21.61;100041.59;5047987;28;20273;-55
2021/03/12 09:18:36;;;;;;;16.30;8.15;;;;;;;2.23;21.32;100051.84;5044404;28;20075;-56
2021/03/12 09:21:06;;;;;;;22.88;8.93;;;;;;;2.05;21.85;100058.75;5050477;28;20235;-56
2021/03/12 09:23:37;;;;;;;22.73;8.73;;;;;;;1.83;22.36;100048.25;5049681;28;20036;-56
2021/03/12 09:26:05;;;;;;;13.00;6.22;;;;;;;1.90;22.07;100048.81;5047852;28;20047;-56
2021/03/12 09:28:31;;;;;;;19.08;8.20;;;;;;;1.70;22.14;100069.84;5039379;28;20036;-56
2021/03/12 09:30:58;;;;;;;18.17;8.00;;;;;;;1.48;22.92;100068.97;5043058;28;20045;-53
2021/03/12 09:33:35;;;;;;;17.27;8.05;;;;;;;1.51;23.14;100058.28;5048307;28;20037;-55
2021/03/12 09:36:21;;;;;;;15.82;8.43;;;;;;;1.35;23.00;100052.75;5045722;28;20064;-52
2021/03/12 09:38:46;;;;;;;16.98;7.55;;;;;;;0.63;22.99;99970.22;5037470;28;20143;-59
2021/03/12 09:41:17;;;;;;;16.10;7.95;;;;;;;0.94;24.07;100056.91;5026451;28;20060;-59
2021/03/12 09:44:01;;;;;;;18.65;8.13;;;;;;;0.87;23.63;100068.59;5047992;28;20033;-55
2021/03/12 09:46:31;;;;;;;17.08;7.35;;;;;;;0.91;23.21;100048.25;5045191;28;20112;-57
2021/03/12 09:48:58;;;;;;;19.65;7.88;;;;;;;0.82;23.26;100029.22;5047116;28;20037;-57
2021/03/12 09:51:24;;;;;;;18.58;7.45;;;;;;;0.85;23.38;100042.31;5049567;28;20033;-59
2021/03/12 09:53:51;;;;;;;18.70;6.55;;;;;;;0.95;23.46;100032.25;5048870;28;20029;-61
2021/03/12 09:56:22;;;;;;;17.75;7.50;;;;;;;0.79;23.45;100031.13;5034680;28;20091;-55
2021/03/12 09:58:49;;;;;;;13.95;5.90;;;;;;;0.90;23.47;100039.47;5044032;28;20091;-57
2021/03/12 10:01:19;;;;;;;25.35;8.30;;;;;;;0.57;23.44;100038.00;5048323;28;20453;-55
2021/03/12 10:03:46;;;;;;;18.17;7.50;;;;;;;0.50;23.60;100022.50;5049132;28;20037;-56
2021/03/12 10:06:13;;;;;;;14.00;7.78;;;;;;;0.37;24.10;100014.19;5015671;28;20472;-57
2021/03/12 10:09:02;;;;;;;15.43;7.60;;;;;;;0.50;23.68;100012.81;5045480;28;20077;-59
2021/03/12 10:11:39;;;;;;;18.02;7.65;;;;;;;0.57;23.87;100026.63;5042018;28;20088;-64
2021/03/12 10:14:39;;;;;;;17.48;7.70;;;;;;;0.43;23.60;100012.16;5049054;28;20120;-55
2021/03/12 10:17:05;;;;;;;15.50;7.50;;;;;;;0.32;23.98;100016.09;4981483;28;20069;-55
2021/03/12 10:19:47;;;;;;;16.42;7.57;;;;;;;0.25;24.17;99992.59;5041911;28;20531;-54
2021/03/12 10:22:16;;;;;;;17.60;6.88;;;;;;;0.23;23.96;99993.56;5045311;28;20029;-53
2021/03/12 10:24:41;;;;;;;15.13;6.57;;;;;;;0.16;24.12;99990.31;5027319;28;20041;-54
2021/03/12 10:27:07;;;;;;;15.57;6.20;;;;;;;0.09;23.91;99967.72;5046760;28;20024;-50
2021/03/12 10:29:37;;;;;;;13.88;5.07;;;;;;;0.18;23.09;99990.25;5042757;28;20459;-58
2021/03/12 10:32:10;;;;;;;12.88;5.80;;;;;;;0.02;23.79;99989.91;5047639;28;20079;-58
2021/03/12 10:34:50;;;;;;;14.23;5.50;;;;;;;-0.06;23.05;100012.09;5046922;28;20041;-53
2021/03/12 10:37:23;;;;;;;10.80;5.57;;;;;;;-0.18;23.47;99963.38;5034762;28;20033;-56
2021/03/12 10:39:52;;;;;;;13.73;5.72;;;;;;;0.12;22.80;99981.66;5041716;28;20583;-57
2021/03/12 10:42:28;;;;;;;13.52;5.70;;;;;;;0.17;23.43;99978.00;5029939;28;20542;-56
2021/03/12 10:44:57;;;;;;;13.13;5.20;;;;;;;0.35;22.42;99979.09;5051911;28;20037;-56
2021/03/12 10:47:23;;;;;;;21.38;5.82;;;;;;;0.35;22.65;99972.06;5052780;28;20041;-54
2021/03/12 10:49:49;;;;;;;9.82;5.00;;;;;;;0.39;22.49;99975.47;5033773;28;20040;-54
2021/03/12 10:52:28;;;;;;;11.73;5.15;;;;;;;0.43;22.54;99991.09;5052251;28;20064;-54
2021/03/12 10:54:55;;;;;;;13.65;5.07;;;;;;;0.39;22.20;99960.50;5046494;28;20033;-55
2021/03/12 10:57:47;;;;;;;10.85;5.60;;;;;;;0.43;22.47;99966.53;5033377;28;20123;-54
2021/03/12 11:00:18;;;;;;;9.55;4.57;;;;;;;0.34;22.11;99954.56;5051432;28;20063;-55
2021/03/12 11:02:44;;;;;;;10.02;4.93;;;;;;;-0.49;22.07;99838.13;5036955;28;20055;-50
2021/03/12 11:05:12;;;;;;;15.00;5.68;;;;;;;0.22;22.15;99928.66;5051041;28;20495;-54
2021/03/12 11:07:39;;;;;;;9.55;5.18;;;;;;;0.36;21.97;99947.44;5048763;28;20056;-52
2021/03/12 11:10:05;;;;;;;8.57;4.65;;;;;;;0.39;22.19;99915.72;5025525;28;20045;-56
2021/03/12 11:12:44;;;;;;;13.85;4.65;;;;;;;0.55;21.43;99913.38;5033158;28;20123;-57
2021/03/12 11:15:15;;;;;;;11.73;4.40;;;;;;;0.36;20.62;99905.31;5051950;28;20033;-57
2021/03/12 11:17:44;;;;;;;10.38;3.83;;;;;;;0.36;21.12;99926.38;5052141;28;20052;-58
2021/03/12 11:20:15;;;;;;;8.40;3.70;;;;;;;0.24;20.61;99900.47;5045065;28;20045;-56
2021/03/12 11:22:41;;;;;;;11.20;3.33;;;;;;;0.27;19.46;99918.81;5030407;28;20458;-60
2021/03/12 11:25:07;;;;;;;7.70;3.60;;;;;;;0.18;19.58;99906.84;5047730;28;20116;-55
2021/03/12 11:27:33;;;;;;;6.93;2.90;;;;;;;0.02;19.32;99876.72;5049527;28;20068;-56
2021/03/12 11:30:00;;;;;;;9.00;3.80;;;;;;;0.02;19.13;99882.84;5027963;28;20071;-65